createdAt,value
2022-11-05T00:00:27.799Z,99.99
2022-11-05T00:02:21.276Z,99.99
2022-11-05T00:03:21.021Z,99.99
2022-11-05T00:05:24.966Z,99.99
2022-11-05T00:06:24.990Z,99.99
2022-11-05T00:08:29.972Z,99.99
2022-11-05T00:09:29.005Z,99.99
2022-11-05T00:11:33.012Z,99.99
2022-11-05T00:12:33.022Z,99.99
2022-11-05T00:14:37.508Z,99.99
2022-11-05T00:15:37.042Z,99.99
2022-11-05T00:17:41.042Z,99.99
2022-11-05T00:18:41.052Z,99.99
2022-11-05T00:20:34.529Z,99.99
2022-11-05T00:21:34.003Z,99.99
2022-11-05T00:23:38.015Z,99.99
2022-11-05T00:24:38.029Z,99.99
2022-11-05T00:26:42.515Z,99.99
2022-11-05T00:27:42.054Z,99.99
2022-11-05T00:29:46.069Z,99.99
2022-11-05T00:30:46.069Z,99.99
2022-11-05T00:32:50.565Z,99.99
2022-11-05T00:33:50.110Z,99.99
2022-11-05T00:35:54.122Z,99.99
2022-11-05T00:36:54.138Z,99.99
2022-11-05T00:38:58.618Z,99.99
2022-11-05T00:39:58.145Z,99.99
2022-11-05T00:42:02.155Z,99.99
2022-11-05T00:43:02.164Z,99.99
2022-11-05T00:45:06.655Z,99.99
2022-11-05T00:46:06.193Z,99.99
2022-11-05T00:48:10.209Z,99.99
2022-11-05T00:49:10.219Z,99.99
2022-11-05T00:51:03.691Z,99.99
2022-11-05T00:52:03.186Z,99.99
2022-11-05T00:54:07.204Z,99.99
2022-11-05T00:55:07.223Z,99.99
2022-11-05T00:57:11.713Z,99.99
2022-11-05T00:58:11.235Z,99.99
2022-11-05T01:00:15.279Z,99.99
2022-11-05T01:01:15.347Z,99.99
2022-11-05T01:03:19.751Z,99.99
2022-11-05T01:04:19.288Z,99.99
2022-11-05T01:08:06.663Z,99.99
2022-11-05T01:09:06.672Z,99.99
2022-11-05T01:11:00.821Z,99.99
2022-11-05T01:11:59.614Z,99.99
2022-11-05T01:13:52.740Z,99.99
2022-11-05T01:14:52.754Z,99.99
2022-11-05T01:16:57.238Z,99.99
2022-11-05T01:17:56.769Z,99.99
2022-11-05T01:20:00.771Z,99.99
2022-11-05T01:22:25.265Z,99.99
2022-11-05T01:23:24.782Z,99.99
2022-11-05T01:25:28.796Z,99.99
2022-11-05T01:26:28.811Z,99.99
2022-11-05T01:28:33.339Z,99.99
2022-11-05T01:29:32.818Z,99.99
2022-11-05T01:31:36.835Z,99.99
2022-11-05T01:32:36.881Z,99.99
2022-11-05T01:34:41.329Z,99.99
2022-11-05T01:35:40.857Z,99.99
2022-11-05T01:37:44.870Z,99.99
2022-11-05T01:38:44.882Z,99.99
2022-11-05T01:40:38.355Z,99.99
2022-11-05T01:41:37.818Z,99.99
2022-11-05T01:43:41.825Z,99.99
2022-11-05T01:44:41.851Z,99.99
2022-11-05T01:46:46.320Z,99.99
2022-11-05T01:47:45.843Z,99.99
2022-11-05T01:49:49.857Z,99.99
2022-11-05T01:50:49.873Z,99.99
2022-11-05T01:52:54.375Z,99.99
2022-11-05T01:53:53.893Z,99.99
2022-11-05T01:55:57.912Z,99.99
2022-11-05T01:56:57.922Z,99.99
2022-11-05T01:59:02.417Z,99.99
2022-11-05T02:00:01.941Z,99.99
2022-11-05T02:02:06.099Z,99.99
2022-11-05T02:03:06.024Z,99.99
2022-11-05T02:05:10.447Z,99.99
2022-11-05T02:06:10.121Z,99.99
2022-11-05T02:08:13.989Z,99.99
2022-11-05T02:09:13.998Z,99.99
2022-11-05T02:11:07.471Z,99.99
2022-11-05T02:12:06.937Z,99.99
2022-11-05T02:14:10.948Z,99.99
2022-11-05T02:15:10.955Z,99.99
2022-11-05T02:17:04.427Z,99.99
2022-11-05T02:18:04.093Z,99.99
2022-11-05T02:20:08.109Z,99.99
2022-11-05T02:21:08.113Z,99.99
2022-11-05T02:23:12.992Z,99.99
2022-11-05T02:24:12.129Z,99.99
2022-11-05T02:26:16.143Z,99.99
2022-11-05T02:27:16.145Z,99.99
2022-11-05T02:29:09.620Z,99.99
2022-11-05T02:30:16.451Z,99.99
2022-11-05T02:32:13.284Z,99.99
2022-11-05T02:33:13.626Z,99.99
2022-11-05T02:35:17.776Z,99.99
2022-11-05T02:36:17.314Z,99.99
2022-11-05T02:38:21.821Z,99.99
2022-11-05T02:39:21.821Z,99.99
2022-11-05T02:40:21.841Z,99.99
2022-11-05T02:41:21.864Z,99.99
2022-11-05T02:42:21.884Z,99.99
2022-11-05T02:43:21.901Z,99.99
2022-11-05T02:44:21.918Z,99.99
2022-11-05T02:45:21.939Z,99.99
2022-11-05T02:46:21.959Z,99.99
2022-11-05T02:47:21.979Z,99.99
2022-11-05T02:48:21.995Z,99.99
2022-11-05T02:49:22.021Z,99.99
2022-11-05T02:50:22.038Z,99.99
2022-11-05T02:51:22.056Z,99.99
2022-11-05T02:52:22.078Z,99.99
2022-11-05T02:53:22.093Z,99.99
2022-11-05T02:54:22.116Z,99.99
2022-11-05T02:55:22.150Z,99.99
2022-11-05T02:56:22.154Z,99.99
2022-11-05T02:57:22.177Z,99.99
2022-11-05T02:58:22.192Z,99.99
2022-11-05T02:59:22.212Z,99.99
2022-11-05T03:00:22.239Z,99.99
2022-11-05T03:01:22.386Z,99.99
2022-11-05T03:02:22.420Z,99.99
2022-11-05T03:03:22.300Z,99.99
2022-11-05T03:04:22.308Z,99.99
2022-11-05T03:05:22.334Z,99.99
2022-11-05T03:06:22.348Z,99.99
2022-11-05T03:07:22.372Z,99.99
2022-11-05T03:08:22.389Z,99.99
2022-11-05T03:09:22.409Z,99.99
2022-11-05T03:10:22.427Z,99.99
2022-11-05T03:11:22.447Z,99.99
2022-11-05T03:12:22.467Z,99.99
2022-11-05T03:13:22.491Z,99.99
2022-11-05T03:14:22.511Z,99.99
2022-11-05T03:15:22.530Z,99.99
2022-11-05T03:16:22.547Z,99.99
2022-11-05T03:17:22.568Z,99.99
2022-11-05T03:18:22.586Z,99.99
2022-11-05T03:19:22.605Z,99.99
2022-11-05T03:20:22.627Z,99.99
2022-11-05T03:21:22.646Z,99.99
2022-11-05T03:22:22.664Z,99.99
2022-11-05T03:23:22.681Z,99.99
2022-11-05T03:24:22.705Z,99.99
2022-11-05T03:25:22.723Z,99.99
2022-11-05T03:26:22.745Z,99.99
2022-11-05T03:27:22.762Z,99.99
2022-11-05T03:28:22.778Z,99.99
2022-11-05T03:29:22.803Z,99.99
2022-11-05T03:30:22.841Z,99.99
2022-11-05T03:31:22.843Z,99.99
2022-11-05T03:32:22.862Z,99.99
2022-11-05T03:33:22.900Z,99.99
2022-11-05T03:34:22.901Z,99.99
2022-11-05T03:35:22.923Z,99.99
2022-11-05T03:36:22.942Z,99.99
2022-11-05T03:37:22.961Z,99.99
2022-11-05T03:38:22.981Z,99.99
2022-11-05T03:39:23.000Z,99.99
2022-11-05T03:40:23.025Z,99.99
2022-11-05T03:41:23.039Z,99.99
2022-11-05T03:42:23.057Z,99.99
2022-11-05T03:43:23.078Z,99.99
2022-11-05T03:44:23.100Z,99.99
2022-11-05T03:45:23.117Z,99.99
2022-11-05T03:46:23.137Z,99.99
2022-11-05T03:47:23.159Z,99.99
2022-11-05T03:48:23.248Z,99.99
2022-11-05T03:49:23.202Z,99.99
2022-11-05T03:50:23.214Z,99.99
2022-11-05T03:51:23.237Z,99.99
2022-11-05T03:52:23.258Z,99.99
2022-11-05T03:53:23.278Z,99.99
2022-11-05T03:54:23.300Z,99.99
2022-11-05T03:55:23.320Z,99.99
2022-11-05T03:56:23.350Z,99.99
2022-11-05T03:57:23.357Z,99.99
2022-11-05T03:58:23.384Z,99.99
2022-11-05T03:59:23.406Z,99.99
2022-11-05T04:00:23.429Z,99.99
2022-11-05T04:01:23.521Z,99.99
2022-11-05T04:02:23.603Z,99.99
2022-11-05T04:03:23.474Z,99.99
2022-11-05T04:04:23.498Z,99.99
2022-11-05T04:05:23.523Z,99.99
2022-11-05T04:06:23.538Z,99.99
2022-11-05T04:07:23.559Z,99.99
2022-11-05T04:08:23.583Z,99.99
2022-11-05T04:09:23.595Z,99.99
2022-11-05T04:10:23.618Z,99.99
2022-11-05T04:11:23.639Z,99.99
2022-11-05T04:12:23.662Z,99.99
2022-11-05T04:13:23.676Z,99.99
2022-11-05T04:14:23.700Z,99.99
2022-11-05T04:15:23.717Z,99.99
2022-11-05T04:16:23.744Z,99.99
2022-11-05T04:17:23.760Z,99.99
2022-11-05T04:18:23.778Z,99.99
2022-11-05T04:19:26.223Z,99.99
2022-11-05T04:20:23.819Z,99.99
2022-11-05T04:21:23.839Z,99.99
2022-11-05T04:22:23.858Z,99.99
2022-11-05T04:23:23.884Z,99.99
2022-11-05T04:24:23.897Z,99.99
2022-11-05T04:25:23.922Z,99.99
2022-11-05T04:26:23.949Z,99.99
2022-11-05T04:27:23.961Z,99.99
2022-11-05T04:28:23.979Z,99.99
2022-11-05T04:29:23.996Z,99.99
2022-11-05T04:30:24.021Z,99.99
2022-11-05T04:31:24.039Z,99.99
2022-11-05T04:32:24.059Z,99.99
2022-11-05T04:33:24.083Z,99.99
2022-11-05T04:34:24.101Z,99.99
2022-11-05T04:35:24.119Z,99.99
2022-11-05T04:36:24.141Z,99.99
2022-11-05T04:37:24.159Z,99.99
2022-11-05T04:38:24.181Z,99.99
2022-11-05T04:39:24.202Z,99.99
2022-11-05T04:40:24.217Z,99.99
2022-11-05T04:41:24.240Z,99.99
2022-11-05T04:42:24.256Z,99.99
2022-11-05T04:43:24.279Z,99.99
2022-11-05T04:44:24.297Z,99.99
2022-11-05T04:45:24.323Z,99.99
2022-11-05T04:46:24.420Z,99.99
2022-11-05T04:47:24.363Z,99.99
2022-11-05T04:48:24.384Z,99.99
2022-11-05T04:49:24.399Z,99.99
2022-11-05T04:50:24.421Z,99.99
2022-11-05T04:51:24.439Z,99.99
2022-11-05T04:52:24.457Z,99.99
2022-11-05T04:53:24.479Z,99.99
2022-11-05T04:54:24.499Z,99.99
2022-11-05T04:55:24.518Z,99.99
2022-11-05T04:56:24.542Z,99.99
2022-11-05T04:57:24.562Z,99.99
2022-11-05T04:58:24.580Z,99.99
2022-11-05T04:59:24.603Z,99.99
2022-11-05T05:00:24.632Z,99.99
2022-11-05T05:01:24.714Z,99.99
2022-11-05T05:02:24.665Z,99.99
2022-11-05T05:03:24.686Z,99.99
2022-11-05T05:04:24.699Z,99.99
2022-11-05T05:05:24.726Z,99.99
2022-11-05T05:06:24.744Z,99.99
2022-11-05T05:07:24.774Z,99.99
2022-11-05T05:08:24.787Z,99.99
2022-11-05T05:09:24.796Z,99.99
2022-11-05T05:10:24.821Z,99.99
2022-11-05T05:11:24.837Z,99.99
2022-11-05T05:12:24.859Z,99.99
2022-11-05T05:13:24.881Z,99.99
2022-11-05T05:14:24.901Z,99.99
2022-11-05T05:15:24.921Z,99.99
2022-11-05T05:16:24.953Z,99.99
2022-11-05T05:17:24.960Z,99.99
2022-11-05T05:18:25.040Z,99.99
2022-11-05T05:19:24.998Z,99.99
2022-11-05T05:20:25.011Z,99.99
2022-11-05T05:21:25.037Z,99.99
2022-11-05T05:22:25.075Z,99.99
2022-11-05T05:23:25.078Z,99.99
2022-11-05T05:24:25.147Z,99.99
2022-11-05T05:25:25.117Z,99.99
2022-11-05T05:26:25.137Z,99.99
2022-11-05T05:27:25.157Z,99.99
2022-11-05T05:28:25.176Z,99.99
2022-11-05T05:29:25.195Z,99.99
2022-11-05T05:30:25.216Z,99.99
2022-11-05T05:31:25.241Z,99.99
2022-11-05T05:32:25.267Z,99.99
2022-11-05T05:33:25.279Z,99.99
2022-11-05T05:34:25.302Z,99.99
2022-11-05T05:35:25.315Z,99.99
2022-11-05T05:36:25.335Z,99.99
2022-11-05T05:37:25.357Z,99.99
2022-11-05T05:38:25.375Z,99.99
2022-11-05T05:39:25.397Z,99.99
2022-11-05T05:40:25.416Z,99.99
2022-11-05T05:41:25.436Z,99.99
2022-11-05T05:42:25.457Z,99.99
2022-11-05T05:43:25.477Z,99.99
2022-11-05T05:44:25.495Z,99.99
2022-11-05T05:45:25.513Z,99.99
2022-11-05T05:46:25.535Z,99.99
2022-11-05T05:47:25.556Z,99.99
2022-11-05T05:48:25.576Z,99.99
2022-11-05T05:49:25.596Z,99.99
2022-11-05T05:50:25.620Z,99.99
2022-11-05T05:51:25.637Z,99.99
2022-11-05T05:52:25.658Z,99.99
2022-11-05T05:53:25.672Z,99.99
2022-11-05T05:54:31.754Z,99.99
2022-11-05T05:55:25.713Z,99.99
2022-11-05T05:56:25.735Z,99.99
2022-11-05T05:57:25.750Z,99.99
2022-11-05T05:58:25.771Z,99.99
2022-11-05T05:59:25.792Z,99.99
2022-11-05T06:00:25.808Z,99.99
2022-11-05T06:01:25.880Z,99.99
2022-11-05T06:02:26.076Z,99.99
2022-11-05T06:03:25.872Z,99.99
2022-11-05T06:04:25.892Z,99.99
2022-11-05T06:05:25.913Z,99.99
2022-11-05T06:06:25.933Z,99.99
2022-11-05T06:07:25.951Z,99.99
2022-11-05T06:08:25.973Z,99.99
2022-11-05T06:09:25.992Z,99.99
2022-11-05T06:10:26.064Z,99.99
2022-11-05T06:11:26.031Z,99.99
2022-11-05T06:12:26.053Z,99.99
2022-11-05T06:13:26.070Z,99.99
2022-11-05T06:14:26.091Z,99.99
2022-11-05T06:15:26.113Z,99.99
2022-11-05T06:16:26.132Z,99.99
2022-11-05T06:17:26.149Z,99.99
2022-11-05T06:18:26.169Z,99.99
2022-11-05T06:19:26.188Z,99.99
2022-11-05T06:20:26.206Z,99.99
2022-11-05T06:21:26.226Z,99.99
2022-11-05T06:22:26.429Z,99.99
2022-11-05T06:23:26.270Z,99.99
2022-11-05T06:24:26.289Z,99.99
2022-11-05T06:25:26.308Z,99.99
2022-11-05T06:26:26.329Z,99.99
2022-11-05T06:27:26.350Z,99.99
2022-11-05T06:28:26.369Z,99.99
2022-11-05T06:29:26.388Z,99.99
2022-11-05T06:30:26.408Z,99.99
2022-11-05T06:31:26.431Z,99.99
2022-11-05T06:32:26.446Z,99.99
2022-11-05T06:33:26.467Z,99.99
2022-11-05T06:34:26.484Z,99.99
2022-11-05T06:35:26.506Z,99.99
2022-11-05T06:36:26.524Z,99.99
2022-11-05T06:37:26.590Z,99.99
2022-11-05T06:38:26.578Z,99.99
2022-11-05T06:39:26.599Z,99.99
2022-11-05T06:40:26.602Z,99.99
2022-11-05T06:41:26.623Z,99.99
2022-11-05T06:42:26.639Z,99.99
2022-11-05T06:43:26.664Z,99.99
2022-11-05T06:44:26.685Z,99.99
2022-11-05T06:45:26.709Z,99.99
2022-11-05T06:46:26.729Z,99.99
2022-11-05T06:47:26.739Z,99.99
2022-11-05T06:48:26.768Z,99.99
2022-11-05T06:49:26.779Z,99.99
2022-11-05T06:50:26.803Z,99.99
2022-11-05T06:51:26.820Z,99.99
2022-11-05T06:52:26.837Z,99.99
2022-11-05T06:53:26.866Z,99.99
2022-11-05T06:54:26.878Z,99.99
2022-11-05T06:55:26.897Z,99.99
2022-11-05T06:56:26.919Z,99.99
2022-11-05T06:57:26.936Z,99.99
2022-11-05T06:58:26.956Z,99.99
2022-11-05T06:59:27.185Z,99.99
2022-11-05T07:00:26.995Z,99.99
2022-11-05T07:01:27.196Z,99.99
2022-11-05T07:02:27.147Z,99.99
2022-11-05T07:03:27.056Z,99.99
2022-11-05T07:04:27.074Z,99.99
2022-11-05T07:05:27.095Z,99.99
2022-11-05T07:06:27.115Z,99.99
2022-11-05T07:07:27.134Z,99.99
2022-11-05T07:08:27.159Z,99.99
2022-11-05T07:09:27.174Z,99.99
2022-11-05T07:10:27.193Z,99.99
2022-11-05T07:11:27.214Z,99.99
2022-11-05T07:12:27.230Z,99.99
2022-11-05T07:13:27.251Z,99.99
2022-11-05T07:14:27.273Z,99.99
2022-11-05T07:15:27.285Z,99.99
2022-11-05T07:16:27.313Z,99.99
2022-11-05T07:17:27.326Z,99.99
2022-11-05T07:18:27.347Z,99.99
2022-11-05T07:19:27.369Z,99.99
2022-11-05T07:20:33.256Z,99.99
2022-11-05T07:21:27.407Z,99.99
2022-11-05T07:22:27.425Z,99.99
2022-11-05T07:23:27.452Z,99.99
2022-11-05T07:24:27.469Z,99.99
2022-11-05T07:25:27.488Z,99.99
2022-11-05T07:26:33.357Z,99.99
2022-11-05T07:27:27.526Z,99.99
2022-11-05T07:28:27.542Z,99.99
2022-11-05T07:29:27.572Z,99.99
2022-11-05T07:30:27.673Z,99.99
2022-11-05T07:31:27.604Z,99.99
2022-11-05T07:32:27.621Z,99.99
2022-11-05T07:33:30.121Z,99.99
2022-11-05T07:34:27.661Z,99.99
2022-11-05T07:35:27.680Z,99.99
2022-11-05T07:36:27.714Z,99.99
2022-11-05T07:37:27.738Z,99.99
2022-11-05T07:38:27.737Z,99.99
2022-11-05T07:39:27.760Z,99.99
2022-11-05T07:40:27.857Z,99.99
2022-11-05T07:41:27.795Z,99.99
2022-11-05T07:42:27.842Z,99.99
2022-11-05T07:43:27.834Z,99.99
2022-11-05T07:44:27.855Z,99.99
2022-11-05T07:45:27.873Z,99.99
2022-11-05T07:46:27.893Z,99.99
2022-11-05T07:47:27.911Z,99.99
2022-11-05T07:48:27.932Z,99.99
2022-11-05T07:49:27.956Z,99.99
2022-11-05T07:50:28.030Z,99.99
2022-11-05T07:51:27.991Z,99.99
2022-11-05T07:52:28.008Z,99.99
2022-11-05T07:53:28.029Z,99.99
2022-11-05T07:54:28.047Z,99.99
2022-11-05T07:55:28.064Z,99.99
2022-11-05T07:56:28.088Z,99.99
2022-11-05T07:57:28.110Z,99.99
2022-11-05T07:58:28.126Z,99.99
2022-11-05T07:59:28.149Z,99.99
2022-11-05T08:00:28.164Z,99.99
2022-11-05T08:01:28.392Z,99.99
2022-11-05T08:02:28.540Z,99.99
2022-11-05T08:03:28.362Z,99.99
2022-11-05T08:04:28.249Z,99.99
2022-11-05T08:05:28.262Z,99.99
2022-11-05T08:06:28.284Z,99.99
2022-11-05T08:07:28.304Z,99.99
2022-11-05T08:08:28.321Z,99.99
2022-11-05T08:09:28.350Z,99.99
2022-11-05T08:10:28.362Z,99.99
2022-11-05T08:11:28.389Z,99.99
2022-11-05T08:12:28.409Z,99.99
2022-11-05T08:13:28.429Z,99.99
2022-11-05T08:14:28.446Z,99.99
2022-11-05T08:15:28.478Z,99.99
2022-11-05T08:16:28.517Z,99.99
2022-11-05T08:17:28.504Z,99.99
2022-11-05T08:18:28.562Z,99.99
2022-11-05T08:19:28.580Z,99.99
2022-11-05T08:20:28.579Z,99.99
2022-11-05T08:21:28.586Z,99.99
2022-11-05T08:22:28.622Z,99.99
2022-11-05T08:23:28.655Z,99.99
2022-11-05T08:24:28.681Z,99.99
2022-11-05T08:25:28.666Z,99.99
2022-11-05T08:26:28.695Z,99.99
2022-11-05T08:27:28.737Z,99.99
2022-11-05T08:28:28.752Z,99.99
2022-11-05T08:29:28.827Z,99.99
2022-11-05T08:30:28.772Z,99.99
2022-11-05T08:31:28.777Z,99.99
2022-11-05T08:32:28.796Z,99.99
2022-11-05T08:33:28.818Z,99.99
2022-11-05T08:34:28.843Z,99.99
2022-11-05T08:35:28.861Z,99.99
2022-11-05T08:36:28.877Z,99.99
2022-11-05T08:37:28.909Z,99.99
2022-11-05T08:38:36.086Z,99.99
2022-11-05T08:40:22.391Z,99.99
2022-11-05T08:41:21.859Z,99.99
2022-11-05T08:43:25.864Z,99.99
2022-11-05T08:44:25.894Z,99.99
2022-11-05T08:46:30.366Z,99.99
2022-11-05T08:47:29.897Z,99.99
2022-11-05T08:49:33.911Z,99.99
2022-11-05T08:50:33.922Z,99.99
2022-11-05T08:52:38.421Z,99.99
2022-11-05T08:53:37.956Z,99.99
2022-11-05T08:55:41.956Z,99.99
2022-11-05T08:56:41.964Z,99.99
2022-11-05T08:58:46.456Z,99.99
2022-11-05T08:59:45.989Z,99.99
2022-11-05T09:01:50.266Z,99.99
2022-11-05T09:02:50.012Z,99.99
2022-11-05T09:04:54.528Z,99.99
2022-11-05T09:05:54.042Z,99.99
2022-11-05T09:08:01.331Z,99.99
2022-11-05T09:08:58.071Z,99.99
2022-11-05T09:10:51.545Z,99.99
2022-11-05T09:12:11.194Z,99.99
2022-11-05T09:13:44.156Z,99.99
2022-11-05T09:14:44.165Z,99.99
2022-11-05T09:16:48.659Z,99.99
2022-11-05T09:17:48.193Z,99.99
2022-11-05T09:19:52.206Z,99.99
2022-11-05T09:20:52.225Z,99.99
2022-11-05T09:22:56.709Z,99.99
2022-11-05T09:23:56.239Z,99.99
2022-11-05T09:26:00.718Z,99.99
2022-11-05T09:27:00.261Z,99.99
2022-11-05T09:29:04.754Z,99.99
2022-11-05T09:30:04.291Z,99.99
2022-11-05T09:32:08.294Z,99.99
2022-11-05T09:33:08.513Z,99.99
2022-11-05T09:35:12.796Z,99.99
2022-11-05T09:36:12.333Z,99.99
2022-11-05T09:38:16.370Z,99.99
2022-11-05T09:39:16.375Z,99.99
2022-11-05T09:41:09.841Z,99.99
2022-11-05T09:42:09.325Z,99.99
2022-11-05T09:44:13.324Z,99.99
2022-11-05T09:45:13.339Z,99.99
2022-11-05T09:47:18.830Z,99.99
2022-11-05T09:48:18.378Z,99.99
2022-11-05T09:50:22.424Z,99.99
2022-11-05T09:51:24.114Z,99.99
2022-11-05T09:53:26.882Z,99.99
2022-11-05T09:54:26.419Z,99.99
2022-11-05T09:56:30.433Z,99.99
2022-11-05T09:57:30.442Z,99.99
2022-11-05T09:59:34.932Z,99.99
2022-11-05T10:00:34.464Z,99.99
2022-11-05T10:02:38.584Z,99.99
2022-11-05T10:03:38.496Z,99.99
2022-11-05T10:05:32.041Z,99.99
2022-11-05T10:06:31.636Z,99.99
2022-11-05T10:08:35.677Z,99.99
2022-11-05T10:09:35.678Z,99.99
2022-11-05T10:11:40.176Z,99.99
2022-11-05T10:12:39.704Z,99.99
2022-11-05T10:14:43.721Z,99.99
2022-11-05T10:15:43.740Z,99.99
2022-11-05T10:17:48.224Z,99.99
2022-11-05T10:18:47.763Z,99.99
2022-11-05T10:20:40.729Z,99.99
2022-11-05T10:23:45.203Z,99.99
2022-11-05T10:24:44.730Z,99.99
2022-11-05T10:26:48.749Z,99.99
2022-11-05T10:27:48.776Z,99.99
2022-11-05T10:29:53.246Z,99.99
2022-11-05T10:30:52.776Z,99.99
2022-11-05T10:32:56.795Z,99.99
2022-11-05T10:33:56.806Z,99.99
2022-11-05T10:36:01.291Z,99.99
2022-11-05T10:37:00.823Z,99.99
2022-11-05T10:39:04.834Z,99.99
2022-11-05T10:40:04.853Z,99.99
2022-11-05T10:42:09.339Z,99.99
2022-11-05T10:43:09.088Z,99.99
2022-11-05T10:45:12.882Z,99.99
2022-11-05T10:46:12.905Z,99.99
2022-11-05T10:48:17.395Z,99.99
2022-11-05T10:49:16.934Z,99.99
2022-11-05T10:51:09.876Z,99.99
2022-11-05T10:52:09.888Z,99.99
2022-11-05T10:54:14.376Z,99.99
2022-11-05T10:55:13.913Z,99.99
2022-11-05T10:57:17.955Z,99.99
2022-11-05T10:58:17.956Z,99.99
2022-11-05T11:00:22.439Z,99.99
2022-11-05T11:01:22.049Z,99.99
2022-11-05T11:03:25.993Z,99.99
2022-11-05T11:04:26.031Z,99.99
2022-11-05T11:06:30.492Z,99.99
2022-11-05T11:07:30.034Z,99.99
2022-11-05T11:09:34.042Z,99.99
2022-11-05T11:10:34.055Z,99.99
2022-11-05T11:12:41.020Z,99.99
2022-11-05T11:13:38.081Z,99.99
2022-11-05T11:15:42.104Z,98.75
2022-11-05T11:16:42.117Z,99.52
2022-11-05T11:18:46.606Z,99.04
2022-11-05T11:19:46.151Z,98.75
2022-11-05T11:21:50.184Z,97.99
2022-11-05T11:22:50.193Z,97.99
2022-11-05T11:24:54.685Z,97.71
2022-11-05T11:25:54.220Z,97.71
2022-11-05T11:27:58.234Z,97.03
2022-11-05T11:28:58.258Z,96.66
2022-11-05T11:30:51.721Z,96.75
2022-11-05T11:31:51.195Z,96.66
2022-11-05T11:33:55.203Z,96.27
2022-11-05T11:34:55.219Z,94.74
2022-11-05T11:36:59.720Z,94.46
2022-11-05T11:37:59.244Z,94.17
2022-11-05T11:40:03.261Z,94.93
2022-11-05T11:41:03.280Z,94.84
2022-11-05T11:43:07.767Z,94.27
2022-11-05T11:44:07.294Z,94.36
2022-11-05T11:46:15.002Z,93.60
2022-11-05T11:47:11.329Z,94.12
2022-11-05T11:49:15.825Z,93.07
2022-11-05T11:50:15.381Z,92.88
2022-11-05T11:52:19.383Z,92.97
2022-11-05T11:53:19.398Z,92.65
2022-11-05T11:55:23.885Z,92.74
2022-11-05T11:56:23.420Z,92.97
2022-11-05T11:58:16.552Z,92.60
2022-11-05T11:59:16.569Z,92.93
2022-11-05T12:01:10.044Z,92.46
2022-11-05T12:02:09.618Z,92.55
2022-11-05T12:04:13.533Z,92.26
2022-11-05T12:05:13.545Z,93.07
2022-11-05T12:07:18.043Z,92.79
2022-11-05T12:08:17.575Z,92.97
2022-11-05T12:10:22.169Z,92.41
2022-11-05T12:11:21.793Z,92.79
2022-11-05T12:13:26.286Z,92.26
2022-11-05T12:14:25.823Z,92.07
2022-11-05T12:16:18.957Z,90.92
2022-11-05T12:17:18.965Z,90.25
2022-11-05T12:19:23.467Z,89.87
2022-11-05T12:20:23.016Z,90.25
2022-11-05T12:22:27.028Z,89.97
2022-11-05T12:23:27.041Z,89.68
2022-11-05T12:25:31.537Z,88.82
2022-11-05T12:26:31.085Z,88.92
2022-11-05T12:28:36.234Z,89.11
2022-11-05T12:29:36.129Z,88.77
2022-11-05T12:31:39.601Z,87.43
2022-11-05T12:32:39.176Z,87.39
2022-11-05T12:34:43.258Z,87.34
2022-11-05T12:35:48.078Z,87.62
2022-11-05T12:37:47.734Z,87.24
2022-11-05T12:38:47.256Z,87.48
2022-11-05T12:40:40.319Z,87.48
2022-11-05T12:41:40.335Z,87.10
2022-11-05T12:43:34.768Z,87.48
2022-11-05T12:44:34.468Z,87.20
2022-11-05T12:46:38.512Z,87.34
2022-11-05T12:47:38.514Z,86.67
2022-11-05T12:49:43.021Z,86.72
2022-11-05T12:50:42.561Z,86.63
2022-11-05T12:51:42.573Z,86.38
2022-11-05T12:52:42.603Z,87.20
2022-11-05T12:53:42.642Z,86.76
2022-11-05T12:54:42.644Z,87.29
2022-11-05T12:55:48.097Z,86.24
2022-11-05T12:56:42.691Z,86.43
2022-11-05T12:57:42.719Z,86.43
2022-11-05T12:58:42.775Z,86.53
2022-11-05T12:59:42.757Z,86.72
2022-11-05T13:00:42.788Z,86.63
2022-11-05T13:01:42.949Z,86.34
2022-11-05T13:02:42.868Z,86.05
2022-11-05T13:03:42.857Z,86.34
2022-11-05T13:04:42.893Z,85.96
2022-11-05T13:05:42.905Z,85.38
2022-11-05T13:06:42.969Z,85.58
2022-11-05T13:07:42.946Z,85.38
2022-11-05T13:08:43.004Z,85.77
2022-11-05T13:09:43.042Z,85.67
2022-11-05T13:10:43.013Z,85.77
2022-11-05T13:11:43.038Z,85.77
2022-11-05T13:12:43.060Z,85.77
2022-11-05T13:13:43.081Z,85.48
2022-11-05T13:14:43.107Z,86.05
2022-11-05T13:15:43.132Z,85.67
2022-11-05T13:16:43.150Z,85.58
2022-11-05T13:17:43.178Z,85.38
2022-11-05T13:18:43.203Z,85.86
2022-11-05T13:19:43.224Z,85.77
2022-11-05T13:20:43.247Z,86.72
2022-11-05T13:21:43.269Z,86.53
2022-11-05T13:22:43.289Z,86.91
2022-11-05T13:23:43.316Z,86.53
2022-11-05T13:24:43.340Z,86.72
2022-11-05T13:25:43.454Z,86.24
2022-11-05T13:26:43.390Z,85.29
2022-11-05T13:27:43.408Z,85.58
2022-11-05T13:28:43.434Z,85.58
2022-11-05T13:29:43.455Z,85.77
2022-11-05T13:30:43.477Z,85.77
2022-11-05T13:31:43.502Z,86.15
2022-11-05T13:32:43.522Z,86.53
2022-11-05T13:33:43.545Z,86.63
2022-11-05T13:34:43.571Z,86.24
2022-11-05T13:35:43.627Z,86.53
2022-11-05T13:36:43.621Z,86.63
2022-11-05T13:37:43.638Z,86.53
2022-11-05T13:38:43.667Z,86.34
2022-11-05T13:39:43.691Z,86.72
2022-11-05T13:40:43.716Z,86.72
2022-11-05T13:41:43.738Z,86.53
2022-11-05T13:42:43.758Z,86.53
2022-11-05T13:43:43.780Z,86.91
2022-11-05T13:44:43.800Z,86.82
2022-11-05T13:45:43.857Z,87.01
2022-11-05T13:46:43.850Z,87.29
2022-11-05T13:47:43.876Z,87.20
2022-11-05T13:48:43.898Z,87.58
2022-11-05T13:53:10.104Z,87.96
2022-11-05T13:54:09.375Z,88.34
2022-11-05T13:56:13.395Z,87.25
2022-11-05T13:57:13.413Z,87.25
2022-11-05T14:01:04.030Z,87.44
2022-11-05T14:02:00.243Z,87.15
2022-11-05T14:04:04.161Z,87.15
2022-11-05T14:05:04.172Z,87.35
2022-11-05T14:07:08.664Z,87.35
2022-11-05T14:08:08.192Z,87.06
2022-11-05T14:10:12.215Z,87.15
2022-11-05T14:11:12.226Z,87.35
2022-11-05T14:13:16.738Z,87.25
2022-11-05T14:14:16.270Z,87.35
2022-11-05T14:16:20.281Z,87.15
2022-11-05T14:17:20.293Z,86.87
2022-11-05T14:19:24.789Z,86.87
2022-11-05T14:20:24.327Z,87.15
2022-11-05T14:22:28.340Z,86.77
2022-11-05T14:23:28.357Z,86.87
2022-11-05T14:25:32.850Z,86.58
2022-11-05T14:26:32.392Z,86.58
2022-11-05T14:28:36.427Z,86.68
2022-11-05T14:29:36.410Z,86.82
2022-11-05T14:32:07.647Z,86.58
2022-11-05T14:32:40.442Z,86.68
2022-11-05T14:34:44.461Z,86.49
2022-11-05T14:35:44.484Z,86.49
2022-11-05T14:37:48.967Z,86.53
2022-11-05T14:38:48.507Z,86.77
2022-11-05T14:40:41.445Z,86.15
2022-11-05T14:41:41.456Z,86.30
2022-11-05T14:43:34.960Z,85.86
2022-11-05T14:44:34.602Z,86.82
2022-11-05T14:46:38.622Z,86.39
2022-11-05T14:47:38.640Z,86.43
2022-11-05T14:49:43.129Z,86.01
2022-11-05T14:50:42.699Z,86.68
2022-11-05T14:52:46.688Z,86.39
2022-11-05T14:53:46.703Z,86.58
2022-11-05T14:55:51.182Z,86.58
2022-11-05T14:56:56.097Z,86.96
2022-11-05T14:58:54.748Z,86.68
2022-11-05T14:59:54.787Z,86.87
2022-11-05T15:03:46.435Z,87.15
2022-11-05T15:04:41.489Z,87.54
2022-11-05T15:08:29.409Z,87.30
2022-11-05T15:09:29.584Z,87.59
2022-11-05T15:10:33.385Z,87.87
2022-11-05T15:13:14.320Z,87.97
2022-11-05T15:14:12.205Z,87.78
2022-11-05T15:16:16.312Z,87.78
2022-11-05T15:17:16.240Z,87.97
2022-11-05T15:19:20.731Z,88.16
2022-11-05T15:20:20.263Z,88.54
2022-11-05T15:22:24.274Z,88.73
2022-11-05T15:23:24.284Z,88.54
2022-11-05T15:25:28.786Z,88.83
2022-11-05T15:26:28.337Z,88.83
2022-11-05T15:28:21.294Z,89.40
2022-11-05T15:29:21.316Z,89.21
2022-11-05T15:31:14.782Z,89.50
2022-11-05T15:32:14.347Z,89.07
2022-11-05T15:34:18.264Z,89.74
2022-11-05T15:35:18.281Z,89.45
2022-11-05T15:37:22.769Z,89.64
2022-11-05T15:38:22.312Z,89.54
2022-11-05T15:40:26.328Z,89.83
2022-11-05T15:41:26.348Z,89.45
2022-11-05T15:43:30.836Z,90.03
2022-11-05T15:44:30.375Z,90.03
2022-11-05T15:46:34.403Z,90.31
2022-11-05T15:47:34.415Z,90.31
2022-11-05T15:49:38.890Z,90.59
2022-11-05T15:50:38.432Z,90.41
2022-11-05T15:52:42.493Z,91.17
2022-11-05T15:53:56.519Z,90.69
2022-11-05T15:55:47.446Z,90.79
2022-11-05T15:56:46.485Z,90.41
2022-11-05T15:58:50.514Z,91.31
2022-11-05T15:59:50.524Z,91.27
2022-11-05T16:01:55.635Z,91.13
2022-11-05T16:02:54.568Z,91.03
2022-11-05T16:04:58.585Z,91.79
2022-11-05T16:05:58.598Z,91.79
2022-11-05T16:08:03.585Z,91.60
2022-11-05T16:09:02.625Z,91.79